Airport View

Enter AWOS ICAO identifier for current METAR.

ex. KFNL

KYKM 210053Z 32016G22KT 10SM SCT060 22/06 A3000 RMK AO2 SLP154 T02170061

21 Sep 2019 01:23

Phone: 509-248-1502

Other Area AWOS: K1S5 - KELN - KHMS - KEAT

TAF KYKM 202330Z 2100/2124 31007KT P6SM BKN250 FM211400 VRB06KT P6SM SCT250